Time;durP1;ratioP1;P1;durP2;ratioP2;P2;SDS_P1;SDS_P2;PMS_P1;PMS_P2;Temp;Humidity;BMP_temperature;BMP_pressure;BME280_temperature;BME280_humidity;BME280_pressure;Samples;Min_cycle;Max_cycle;Signal;HPM_P1;HPM_P2
2023/07/27 00:01:59;;;;;;;3.70;2.90;;;13.50;99.90;;;;;;4980785;28;20404;-88
2023/07/27 00:04:25;;;;;;;3.20;2.93;;;13.70;99.90;;;;;;4980683;28;20405;-88
2023/07/27 00:06:50;;;;;;;2.78;2.55;;;13.60;99.90;;;;;;4974309;28;20399;-88
2023/07/27 00:09:16;;;;;;;2.37;2.17;;;13.60;99.90;;;;;;4982986;28;20420;-88
2023/07/27 00:11:42;;;;;;;2.70;2.40;;;13.50;99.90;;;;;;4994543;28;20416;-84
2023/07/27 00:14:07;;;;;;;3.03;2.40;;;13.50;99.90;;;;;;4966511;28;20412;-83
2023/07/27 00:16:33;;;;;;;2.72;2.22;;;13.50;99.90;;;;;;4964060;28;20416;-84
2023/07/27 00:18:59;;;;;;;2.90;2.60;;;13.50;99.90;;;;;;4965368;28;20410;-85
2023/07/27 00:21:24;;;;;;;2.70;2.40;;;13.50;99.90;;;;;;4958919;28;20394;-85
2023/07/27 00:23:50;;;;;;;3.00;2.70;;;13.30;99.90;;;;;;4957967;28;20453;-84
2023/07/27 00:26:15;;;;;;;3.60;2.70;;;13.60;99.90;;;;;;4948902;28;20423;-84
2023/07/27 00:28:41;;;;;;;2.90;2.30;;;13.30;99.90;;;;;;4961040;28;20447;-84
2023/07/27 00:31:07;;;;;;;2.60;2.40;;;13.40;99.90;;;;;;4974564;28;21063;-85
2023/07/27 00:33:33;;;;;;;3.10;2.80;;;13.50;99.90;;;;;;4975494;28;20424;-85
2023/07/27 00:35:59;;;;;;;2.85;2.40;;;15.20;99.90;;;;;;4974387;28;20431;-84
2023/07/27 00:38:24;;;;;;;2.70;2.50;;;13.80;99.90;;;;;;4969160;28;20438;-84
2023/07/27 00:40:50;;;;;;;3.10;2.78;;;13.40;99.90;;;;;;4959384;28;20410;-84
2023/07/27 00:43:16;;;;;;;3.97;2.20;;;13.20;99.90;;;;;;4956975;28;20425;-84
2023/07/27 00:45:42;;;;;;;2.43;2.23;;;14.30;99.90;;;;;;4965347;28;20768;-84
2023/07/27 00:48:11;;;;;;;4.03;2.65;;;13.30;99.90;;;;;;4951463;28;20430;-85
2023/07/27 00:50:37;;;;;;;2.88;2.40;;;13.30;99.90;;;;;;4961998;29;20960;-84
2023/07/27 00:53:05;;;;;;;4.65;2.60;;;13.30;99.90;;;;;;4962032;28;20445;-85
2023/07/27 00:55:31;;;;;;;2.60;2.40;;;13.40;99.90;;;;;;4970487;28;20415;-84
2023/07/27 00:57:58;;;;;;;3.20;2.42;;;13.30;99.90;;;;;;4978294;28;21096;-85
2023/07/27 01:00:24;;;;;;;4.57;2.10;;;13.20;99.90;;;;;;4942189;28;20403;-85
2023/07/27 01:02:50;;;;;;;3.30;3.00;;;13.20;99.90;;;;;;4948333;28;20426;-85
2023/07/27 01:05:16;;;;;;;3.00;2.40;;;13.20;99.90;;;;;;4972825;28;20572;-85
2023/07/27 01:07:42;;;;;;;2.50;2.30;;;14.00;99.90;;;;;;4966054;28;20898;-86
2023/07/27 01:10:09;;;;;;;3.28;2.53;;;15.20;99.90;;;;;;4957768;28;20414;-85
2023/07/27 01:12:41;;;;;;;2.70;2.50;;;13.20;99.90;;;;;;4963850;28;20421;-85
2023/07/27 01:15:11;;;;;;;3.00;2.60;;;13.30;99.90;;;;;;4957673;28;20405;-84
2023/07/27 01:18:04;;;;;;;5.90;2.50;;;13.30;99.90;;;;;;4959936;28;20411;-86
2023/07/27 01:21:23;;;;;;;5.80;2.80;;;13.30;99.90;;;;;;4957536;29;20838;-86
2023/07/27 01:24:14;;;;;;;2.85;2.45;;;13.10;99.90;;;;;;4948976;29;20423;-85
2023/07/27 01:27:10;;;;;;;5.00;2.50;;;13.20;99.90;;;;;;4975091;28;20409;-87
2023/07/27 01:30:14;;;;;;;3.17;2.70;;;13.00;99.90;;;;;;4974101;28;20410;-86
2023/07/27 01:32:41;;;;;;;3.47;2.60;;;13.00;99.90;;;;;;4966933;28;20382;-86
2023/07/27 01:35:13;;;;;;;3.00;2.50;;;14.60;99.90;;;;;;4974019;28;20426;-85
2023/07/27 01:37:41;;;;;;;3.20;2.70;;;12.90;99.90;;;;;;4968064;28;20419;-85
2023/07/27 01:40:10;;;;;;;3.30;2.50;;;13.00;99.90;;;;;;4971917;28;20414;-85
2023/07/27 01:42:37;;;;;;;3.20;2.40;;;12.90;99.90;;;;;;4963875;28;20518;-85
2023/07/27 01:45:04;;;;;;;3.17;2.60;;;12.90;99.90;;;;;;4964136;28;20397;-85
2023/07/27 01:47:30;;;;;;;2.50;2.30;;;13.00;99.90;;;;;;4961640;28;20402;-86
2023/07/27 01:49:56;;;;;;;3.40;2.50;;;12.90;99.90;;;;;;4963576;28;20476;-85
2023/07/27 01:52:24;;;;;;;2.90;2.60;;;13.50;99.90;;;;;;4961303;28;20433;-86
2023/07/27 01:54:50;;;;;;;3.30;2.90;;;13.00;99.90;;;;;;4969998;28;20402;-85
2023/07/27 01:57:17;;;;;;;2.50;2.30;;;13.20;99.90;;;;;;4952413;28;20724;-84
2023/07/27 01:59:43;;;;;;;2.53;2.33;;;12.90;99.90;;;;;;4950414;28;20486;-85
2023/07/27 02:02:09;;;;;;;4.30;3.10;;;12.90;99.90;;;;;;4962090;28;20411;-84
2023/07/27 02:04:35;;;;;;;2.80;2.50;;;13.30;99.90;;;;;;4975325;28;20399;-85
2023/07/27 02:07:00;;;;;;;2.70;2.20;;;12.90;99.90;;;;;;4969621;28;21084;-84
2023/07/27 02:09:26;;;;;;;3.70;2.42;;;13.00;99.90;;;;;;4965650;28;20423;-84
2023/07/27 02:11:58;;;;;;;2.60;2.40;;;13.00;99.90;;;;;;5015742;23;20525;-77
2023/07/27 02:14:40;;;;;;;3.95;2.40;;;13.20;99.90;;;;;;4990971;28;20435;-78
2023/07/27 02:17:16;;;;;;;3.83;2.50;;;13.10;99.90;;;;;;4993062;28;20433;-78
2023/07/27 02:19:44;;;;;;;3.88;2.65;;;13.20;99.90;;;;;;4993108;28;20798;-77
2023/07/27 02:22:11;;;;;;;2.97;2.50;;;13.30;99.90;;;;;;4976745;28;20788;-78
2023/07/27 02:24:37;;;;;;;3.05;2.10;;;13.20;99.90;;;;;;4976907;28;20412;-78
2023/07/27 02:27:04;;;;;;;3.70;2.50;;;13.30;99.90;;;;;;4973818;28;20873;-78
2023/07/27 02:29:29;;;;;;;2.75;2.20;;;13.40;99.90;;;;;;4972736;28;20426;-78
2023/07/27 02:31:55;;;;;;;3.10;2.70;;;13.30;99.90;;;;;;4966393;28;20420;-78
2023/07/27 02:34:20;;;;;;;2.60;2.40;;;13.30;99.90;;;;;;4973447;28;20740;-78
2023/07/27 02:36:46;;;;;;;3.58;2.40;;;13.30;99.90;;;;;;4973167;28;20412;-78
2023/07/27 02:39:11;;;;;;;3.20;2.30;;;13.50;99.90;;;;;;4974252;28;20427;-78
2023/07/27 02:41:37;;;;;;;2.60;2.40;;;13.30;99.90;;;;;;4979928;28;20796;-77
2023/07/27 02:44:02;;;;;;;4.35;2.80;;;13.60;99.90;;;;;;4984115;28;21114;-78
2023/07/27 02:46:28;;;;;;;4.40;2.53;;;13.40;99.90;;;;;;4988601;28;20423;-77
2023/07/27 02:48:55;;;;;;;2.57;2.37;;;13.20;99.90;;;;;;4988019;28;20446;-77
2023/07/27 02:51:21;;;;;;;2.88;2.60;;;13.30;99.90;;;;;;4990980;28;20394;-77
2023/07/27 02:53:46;;;;;;;3.03;2.30;;;13.20;99.90;;;;;;4993487;28;20402;-78
2023/07/27 02:56:12;;;;;;;2.40;2.20;;;13.20;99.90;;;;;;4975886;28;20911;-78
2023/07/27 02:58:37;;;;;;;3.40;2.75;;;13.20;99.90;;;;;;4972439;28;20417;-78
2023/07/27 03:01:03;;;;;;;2.90;2.70;;;13.20;99.90;;;;;;4971558;28;20459;-77
2023/07/27 03:03:28;;;;;;;3.37;2.50;;;13.20;99.90;;;;;;4990205;28;20470;-78
2023/07/27 03:05:59;;;;;;;2.60;2.40;;;13.20;99.90;;;;;;4970009;28;20462;-78
2023/07/27 03:08:26;;;;;;;2.90;2.60;;;13.20;99.90;;;;;;4972494;28;20411;-78
2023/07/27 03:10:51;;;;;;;3.90;2.80;;;13.30;99.90;;;;;;4971551;28;20447;-78
2023/07/27 03:13:17;;;;;;;3.40;2.65;;;13.40;99.90;;;;;;4973065;28;20892;-78
2023/07/27 03:15:42;;;;;;;2.87;2.40;;;13.40;99.90;;;;;;4968262;28;20791;-77
2023/07/27 03:18:08;;;;;;;3.77;2.40;;;13.30;99.90;;;;;;4978889;28;20414;-78
2023/07/27 03:20:40;;;;;;;3.20;2.90;;;13.40;99.90;;;;;;4967158;28;20417;-78
2023/07/27 03:23:07;;;;;;;3.90;2.50;;;13.20;99.90;;;;;;4966911;28;20421;-78
2023/07/27 03:25:34;;;;;;;5.05;2.55;;;13.30;99.90;;;;;;4973975;28;20415;-78
2023/07/27 03:28:05;;;;;;;3.20;2.90;;;13.40;99.90;;;;;;4973516;28;20470;-78
2023/07/27 03:30:31;;;;;;;3.10;2.80;;;13.30;99.90;;;;;;4972722;28;20399;-78
2023/07/27 03:32:57;;;;;;;3.22;2.45;;;13.40;99.90;;;;;;4972529;28;20408;-78
2023/07/27 03:35:23;;;;;;;3.13;2.72;;;13.40;99.90;;;;;;4973594;28;20396;-78
2023/07/27 03:37:50;;;;;;;3.83;2.90;;;13.50;99.90;;;;;;4987579;28;20402;-77
2023/07/27 03:40:15;;;;;;;2.90;2.67;;;13.60;99.90;;;;;;4973300;28;20792;-78
2023/07/27 03:42:41;;;;;;;3.20;2.53;;;13.60;99.90;;;;;;4972977;28;20450;-78
2023/07/27 03:45:07;;;;;;;3.53;2.80;;;13.60;99.90;;;;;;4974591;28;20388;-78
2023/07/27 03:47:34;;;;;;;2.70;2.50;;;13.60;99.90;;;;;;4972729;28;21432;-78
2023/07/27 03:50:00;;;;;;;2.53;2.33;;;13.60;99.90;;;;;;4972155;28;20487;-78
2023/07/27 03:52:25;;;;;;;3.80;2.37;;;13.50;99.90;;;;;;4972653;28;20849;-78
2023/07/27 03:54:51;;;;;;;5.80;2.80;;;13.60;99.90;;;;;;4980712;28;20757;-78
2023/07/27 03:57:16;;;;;;;3.70;2.40;;;13.50;99.90;;;;;;4973379;28;20403;-78
2023/07/27 03:59:42;;;;;;;3.40;2.70;;;13.70;99.90;;;;;;4970620;28;20430;-78
2023/07/27 04:02:07;;;;;;;2.63;2.43;;;13.70;99.90;;;;;;4955772;28;20449;-78
2023/07/27 04:04:33;;;;;;;2.83;2.53;;;13.70;99.90;;;;;;4970201;28;20402;-77
2023/07/27 04:06:59;;;;;;;3.33;2.70;;;13.80;99.90;;;;;;4970819;28;20519;-77
2023/07/27 04:09:24;;;;;;;3.00;2.70;;;13.90;99.90;;;;;;4971539;28;20426;-78
2023/07/27 04:11:50;;;;;;;2.90;2.60;;;13.80;99.90;;;;;;4976590;28;20412;-78
2023/07/27 04:14:16;;;;;;;2.88;2.50;;;13.80;99.90;;;;;;4976847;28;20407;-78
2023/07/27 04:16:41;;;;;;;4.85;2.40;;;13.70;99.90;;;;;;4981623;28;20909;-78
2023/07/27 04:19:07;;;;;;;3.85;2.63;;;13.70;99.90;;;;;;4985119;28;20420;-77
2023/07/27 04:21:32;;;;;;;3.10;2.80;;;13.90;99.90;;;;;;4975672;28;20396;-78
2023/07/27 04:23:58;;;;;;;3.30;2.60;;;13.80;99.90;;;;;;4976539;28;20439;-79
2023/07/27 04:26:23;;;;;;;2.58;2.25;;;13.80;99.90;;;;;;4976538;28;20430;-78
2023/07/27 04:28:49;;;;;;;2.90;2.50;;;13.90;99.90;;;;;;4965673;28;20452;-78
2023/07/27 04:31:15;;;;;;;2.90;2.70;;;13.90;99.90;;;;;;4974183;28;20444;-78
2023/07/27 04:33:40;;;;;;;2.90;2.70;;;13.90;99.90;;;;;;4974139;28;20496;-78
2023/07/27 04:36:06;;;;;;;4.07;2.70;;;13.90;99.90;;;;;;4962945;28;20487;-77
2023/07/27 04:38:31;;;;;;;4.37;2.73;;;14.00;99.90;;;;;;4956535;29;20494;-78
2023/07/27 04:40:57;;;;;;;4.33;3.00;;;14.10;99.90;;;;;;4955696;29;20390;-78
2023/07/27 04:43:23;;;;;;;4.33;2.67;;;14.10;99.90;;;;;;4975006;28;20439;-78
2023/07/27 04:45:48;;;;;;;2.73;2.40;;;14.20;99.90;;;;;;4972573;28;20417;-78
2023/07/27 04:48:14;;;;;;;3.65;2.63;;;14.40;99.90;;;;;;4958405;29;20413;-78
2023/07/27 04:50:39;;;;;;;3.50;3.20;;;14.30;99.90;;;;;;4970294;28;20874;-78
2023/07/27 04:53:05;;;;;;;4.90;2.60;;;14.30;99.90;;;;;;4977309;28;20451;-78
2023/07/27 04:55:31;;;;;;;3.30;2.90;;;14.20;99.90;;;;;;4977443;28;20513;-77
2023/07/27 04:57:56;;;;;;;3.00;2.70;;;14.50;99.90;;;;;;4976882;28;20816;-78
2023/07/27 05:00:22;;;;;;;4.47;2.80;;;14.40;99.90;;;;;;4975245;28;20407;-78
2023/07/27 05:02:47;;;;;;;3.40;2.70;;;14.30;99.90;;;;;;4974795;28;20540;-78
2023/07/27 05:05:13;;;;;;;5.20;3.10;;;14.40;99.90;;;;;;4976787;28;20946;-78
2023/07/27 05:07:38;;;;;;;3.47;2.97;;;14.40;99.90;;;;;;4974980;28;20392;-77
2023/07/27 05:10:04;;;;;;;2.70;2.50;;;14.40;99.90;;;;;;4977275;28;20400;-78
2023/07/27 05:12:32;;;;;;;3.65;2.80;;;14.40;99.90;;;;;;4976835;28;20416;-78
2023/07/27 05:14:58;;;;;;;4.13;2.90;;;15.10;99.90;;;;;;4976701;28;20392;-78
2023/07/27 05:17:24;;;;;;;3.42;2.63;;;14.60;99.90;;;;;;4976261;28;20384;-78
2023/07/27 05:19:49;;;;;;;3.80;2.90;;;14.60;99.90;;;;;;4981367;28;20844;-77
2023/07/27 05:22:15;;;;;;;3.22;2.80;;;14.50;99.90;;;;;;4994695;28;20438;-77
2023/07/27 05:24:40;;;;;;;3.33;2.50;;;14.50;99.90;;;;;;4988653;28;20424;-77
2023/07/27 05:27:06;;;;;;;5.30;3.10;;;14.60;99.90;;;;;;4977842;28;20459;-78
2023/07/27 05:29:31;;;;;;;5.10;2.90;;;14.60;99.90;;;;;;4974600;28;20428;-78
2023/07/27 05:31:57;;;;;;;6.00;3.10;;;14.80;99.90;;;;;;4970752;28;20416;-78
2023/07/27 05:34:23;;;;;;;3.60;2.90;;;14.70;99.90;;;;;;4974358;28;20487;-78
2023/07/27 05:36:48;;;;;;;3.20;2.87;;;14.70;99.90;;;;;;4980403;28;20416;-78
2023/07/27 05:39:14;;;;;;;3.42;3.00;;;14.80;99.90;;;;;;4986844;28;20886;-78
2023/07/27 05:41:39;;;;;;;3.63;3.00;;;14.80;99.90;;;;;;4983661;28;20479;-78
2023/07/27 05:44:05;;;;;;;2.87;2.67;;;15.00;99.90;;;;;;4971404;28;20427;-78
2023/07/27 05:46:30;;;;;;;2.65;2.45;;;15.00;99.90;;;;;;4975765;28;20408;-77
2023/07/27 05:48:56;;;;;;;3.03;2.67;;;15.10;99.90;;;;;;4976005;28;20423;-77
2023/07/27 05:51:22;;;;;;;3.77;2.57;;;15.10;99.90;;;;;;4972864;28;20445;-77
2023/07/27 05:53:47;;;;;;;2.93;2.63;;;15.10;99.90;;;;;;4955758;28;20413;-78
2023/07/27 05:56:13;;;;;;;3.13;2.60;;;15.20;99.90;;;;;;4971251;28;20900;-78
2023/07/27 05:58:38;;;;;;;4.30;2.60;;;15.30;99.90;;;;;;4972877;28;20461;-78
2023/07/27 06:01:04;;;;;;;4.10;2.97;;;15.50;99.90;;;;;;4974039;28;20939;-78
2023/07/27 06:03:31;;;;;;;5.93;2.80;;;15.40;99.90;;;;;;4976534;28;20404;-78
2023/07/27 06:05:57;;;;;;;4.28;2.78;;;15.50;99.90;;;;;;4974436;28;20425;-78
2023/07/27 06:08:23;;;;;;;3.60;2.70;;;15.50;99.90;;;;;;4976158;28;20802;-77
2023/07/27 06:10:49;;;;;;;4.00;2.60;;;15.60;99.90;;;;;;4972236;28;20475;-78
2023/07/27 06:13:15;;;;;;;3.40;3.10;;;15.70;99.90;;;;;;4974842;28;20432;-78
2023/07/27 06:15:47;;;;;;;5.17;2.87;;;16.10;99.90;;;;;;4973652;28;20384;-77
2023/07/27 06:18:13;;;;;;;5.00;2.80;;;15.80;99.90;;;;;;4973369;28;20392;-77
2023/07/27 06:20:39;;;;;;;4.00;2.90;;;15.90;99.90;;;;;;4971089;28;20831;-77
2023/07/27 06:23:04;;;;;;;4.10;3.20;;;15.90;99.90;;;;;;4975494;28;20404;-77
2023/07/27 06:25:30;;;;;;;3.40;2.90;;;16.00;99.90;;;;;;4989644;28;20418;-78
2023/07/27 06:27:55;;;;;;;4.40;3.23;;;16.00;99.90;;;;;;4970564;28;20430;-78
2023/07/27 06:30:21;;;;;;;5.07;3.00;;;16.00;99.90;;;;;;4971784;28;20463;-77
2023/07/27 06:32:47;;;;;;;3.25;2.90;;;16.00;99.90;;;;;;4970878;28;20455;-78
2023/07/27 06:35:12;;;;;;;3.40;3.00;;;16.10;99.90;;;;;;4972689;28;20780;-78
2023/07/27 06:37:38;;;;;;;3.50;3.20;;;16.10;99.90;;;;;;4973892;28;20872;-78
2023/07/27 06:40:05;;;;;;;3.83;3.00;;;16.30;99.90;;;;;;4972678;28;20450;-78
2023/07/27 06:42:31;;;;;;;3.03;2.80;;;16.30;99.90;;;;;;4988950;28;20403;-78
2023/07/27 06:44:56;;;;;;;3.33;2.83;;;16.50;99.90;;;;;;4973738;28;20386;-78
2023/07/27 06:47:23;;;;;;;5.65;3.00;;;16.50;99.90;;;;;;4965473;28;21062;-78
2023/07/27 06:49:48;;;;;;;4.57;3.08;;;16.50;99.90;;;;;;4973835;28;20426;-76
2023/07/27 06:52:14;;;;;;;3.37;2.90;;;16.60;99.90;;;;;;4973867;28;20404;-77
2023/07/27 06:54:39;;;;;;;3.60;2.60;;;16.60;99.90;;;;;;4974923;28;20419;-77
2023/07/27 06:57:09;;;;;;;3.60;2.60;;;16.70;99.90;;;;;;4971843;28;20412;-78
2023/07/27 06:59:38;;;;;;;3.65;2.20;;;16.60;99.90;;;;;;4973326;28;21132;-78
2023/07/27 07:02:04;;;;;;;4.68;3.40;;;16.60;99.90;;;;;;4970764;28;20488;-77
2023/07/27 07:04:31;;;;;;;3.88;3.10;;;16.50;99.90;;;;;;4972559;28;20470;-78
2023/07/27 07:06:57;;;;;;;5.27;3.17;;;16.50;99.90;;;;;;4979256;28;20398;-78
2023/07/27 07:09:23;;;;;;;3.42;3.08;;;16.50;99.90;;;;;;4992037;28;20933;-78
2023/07/27 07:11:48;;;;;;;3.70;2.80;;;16.40;99.90;;;;;;4991295;28;20403;-77
2023/07/27 07:14:14;;;;;;;3.43;2.70;;;16.40;99.90;;;;;;4970300;28;20435;-78
2023/07/27 07:16:40;;;;;;;3.00;2.80;;;16.50;99.90;;;;;;4962825;28;20408;-78
2023/07/27 07:19:05;;;;;;;3.00;2.40;;;16.50;99.90;;;;;;4968058;28;20463;-77
2023/07/27 07:21:31;;;;;;;4.33;2.80;;;16.70;99.90;;;;;;4971725;28;20471;-80
2023/07/27 07:23:56;;;;;;;3.07;2.40;;;16.80;99.90;;;;;;4971899;28;20408;-82
2023/07/27 07:26:22;;;;;;;4.38;2.90;;;16.90;99.90;;;;;;4973449;28;20795;-81
2023/07/27 07:28:48;;;;;;;3.88;2.97;;;17.00;99.90;;;;;;4973145;28;20919;-82
2023/07/27 07:31:13;;;;;;;3.20;2.60;;;17.00;99.90;;;;;;4972704;28;20395;-81
2023/07/27 07:33:39;;;;;;;3.30;2.72;;;17.10;99.90;;;;;;4973133;28;20392;-81
2023/07/27 07:36:04;;;;;;;4.03;2.53;;;17.20;99.90;;;;;;4981172;28;20429;-82
2023/07/27 07:38:30;;;;;;;5.90;2.70;;;17.30;99.90;;;;;;4972181;28;20443;-82
2023/07/27 07:40:55;;;;;;;2.63;2.33;;;17.40;99.90;;;;;;4972856;28;20880;-82
2023/07/27 07:43:21;;;;;;;3.73;2.00;;;17.60;99.90;;;;;;4968648;28;20396;-81
2023/07/27 07:45:47;;;;;;;2.40;1.30;;;18.00;99.90;;;;;;4969871;28;20396;-83
2023/07/27 07:48:12;;;;;;;1.88;1.40;;;18.80;99.90;;;;;;4971453;28;20466;-81
2023/07/27 07:50:38;;;;;;;3.70;1.30;;;18.90;99.90;;;;;;4970310;28;20388;-81
2023/07/27 07:53:05;;;;;;;2.28;1.20;;;19.20;99.90;;;;;;4977045;28;20388;-82
2023/07/27 07:55:35;;;;;;;1.90;1.20;;;19.30;99.90;;;;;;4977897;28;20404;-82
2023/07/27 07:58:00;;;;;;;1.10;1.00;;;19.70;99.90;;;;;;4976766;28;20380;-84
2023/07/27 08:00:26;;;;;;;1.13;0.80;;;19.50;99.90;;;;;;4977972;28;20497;-83
2023/07/27 08:02:51;;;;;;;2.00;1.17;;;19.60;99.90;;;;;;4981438;28;20380;-83
2023/07/27 08:05:17;;;;;;;2.20;1.00;;;19.70;99.90;;;;;;4986894;28;20406;-83
2023/07/27 08:07:42;;;;;;;1.20;1.00;;;19.80;99.90;;;;;;4981868;28;20395;-85
2023/07/27 08:10:09;;;;;;;1.85;1.70;;;19.80;99.90;;;;;;4987208;28;20487;-82
2023/07/27 08:12:35;;;;;;;2.40;1.20;;;20.00;99.90;;;;;;5015098;23;20445;-86
2023/07/27 08:15:01;;;;;;;2.07;1.33;;;20.10;99.90;;;;;;4994572;28;20394;-84
2023/07/27 08:17:29;;;;;;;1.20;1.00;;;20.00;99.90;;;;;;4997928;28;20953;-84
2023/07/27 08:19:55;;;;;;;1.80;1.10;;;20.20;99.90;;;;;;4979935;28;20397;-84
2023/07/27 08:22:20;;;;;;;1.70;1.20;;;20.00;99.90;;;;;;4999039;28;20866;-84
2023/07/27 08:24:46;;;;;;;1.50;1.40;;;20.10;99.90;;;;;;4977472;28;20397;-84
2023/07/27 08:27:11;;;;;;;1.73;1.40;;;20.20;99.90;;;;;;4957458;28;20904;-84
2023/07/27 08:29:37;;;;;;;2.30;1.40;;;20.30;99.90;;;;;;4978951;28;20411;-85
2023/07/27 08:32:03;;;;;;;1.20;1.10;;;20.40;99.90;;;;;;4959382;28;20452;-84
2023/07/27 08:34:29;;;;;;;2.40;1.27;;;20.60;99.90;;;;;;4975389;28;20397;-85
2023/07/27 08:36:54;;;;;;;1.80;1.20;;;20.80;99.90;;;;;;4973118;28;20392;-83
2023/07/27 08:39:20;;;;;;;1.50;1.40;;;20.90;99.90;;;;;;4979489;28;20398;-84
2023/07/27 08:41:46;;;;;;;1.77;1.10;;;20.80;99.90;;;;;;4996739;28;20770;-85
2023/07/27 08:44:13;;;;;;;1.75;1.25;;;20.90;99.90;;;;;;4962670;28;20407;-85
2023/07/27 08:46:41;;;;;;;1.90;1.15;;;20.90;99.90;;;;;;4959768;28;20400;-86
2023/07/27 08:49:12;;;;;;;1.90;1.30;;;21.00;99.90;;;;;;4958042;28;20410;-85
2023/07/27 08:51:41;;;;;;;1.52;1.13;;;20.90;99.90;;;;;;4940294;29;20420;-86
2023/07/27 08:54:06;;;;;;;1.40;1.15;;;20.90;99.90;;;;;;4956903;29;20398;-85
2023/07/27 08:56:33;;;;;;;2.37;1.20;;;20.80;99.90;;;;;;4940767;29;20397;-85
2023/07/27 08:58:59;;;;;;;3.70;1.60;;;20.90;99.90;;;;;;4972094;28;20772;-85
2023/07/27 09:01:26;;;;;;;1.92;1.65;;;20.80;99.90;;;;;;4938731;29;20410;-87
2023/07/27 09:03:51;;;;;;;1.95;1.58;;;20.90;99.90;;;;;;4956161;28;20424;-86
2023/07/27 09:06:36;;;;;;;1.60;1.50;;;21.00;99.90;;;;;;4939681;29;20416;-84
2023/07/27 09:09:15;;;;;;;1.10;1.00;;;21.10;99.90;;;;;;4957529;29;20406;-83
2023/07/27 09:11:42;;;;;;;1.40;1.30;;;21.20;99.90;;;;;;4941983;29;20417;-82
2023/07/27 09:14:07;;;;;;;2.17;1.60;;;21.00;99.90;;;;;;4939334;29;20956;-86
2023/07/27 09:16:37;;;;;;;1.80;1.50;;;21.10;99.90;;;;;;4938630;29;20434;-86
2023/07/27 09:19:03;;;;;;;1.40;1.30;;;21.00;99.90;;;;;;4955122;29;20394;-85
2023/07/27 09:21:45;;;;;;;1.40;1.30;;;21.10;99.90;;;;;;4952405;28;20408;-83
2023/07/27 09:24:15;;;;;;;2.05;1.35;;;21.10;99.90;;;;;;4979478;28;20392;-84
2023/07/27 09:26:45;;;;;;;1.95;1.30;;;21.00;99.90;;;;;;4956377;29;20401;-84
2023/07/27 09:29:11;;;;;;;2.33;1.60;;;21.00;99.90;;;;;;4960699;29;20418;-86
2023/07/27 09:31:47;;;;;;;2.83;1.58;;;21.00;99.90;;;;;;4944021;29;20397;-86
2023/07/27 09:34:13;;;;;;;2.30;1.50;;;21.00;99.90;;;;;;4957733;29;20466;-85
2023/07/27 09:36:39;;;;;;;1.77;1.40;;;20.60;99.90;;;;;;4963731;28;20425;-85
2023/07/27 09:39:05;;;;;;;2.40;1.70;;;20.80;99.90;;;;;;4985420;28;20419;-84
2023/07/27 09:41:31;;;;;;;1.50;1.40;;;20.70;99.90;;;;;;4987390;28;20392;-84
2023/07/27 09:44:01;;;;;;;2.10;1.60;;;20.50;99.90;;;;;;4959203;28;20415;-85
2023/07/27 09:46:27;;;;;;;2.05;1.70;;;20.40;99.90;;;;;;4967604;28;20818;-85
2023/07/27 09:48:53;;;;;;;1.70;1.60;;;20.90;99.90;;;;;;4938063;29;20409;-85
2023/07/27 09:51:22;;;;;;;1.70;1.60;;;20.10;99.90;;;;;;4943648;29;20759;-85
2023/07/27 09:53:50;;;;;;;3.47;1.60;;;19.70;99.90;;;;;;4956300;28;20388;-85
2023/07/27 09:56:16;;;;;;;3.40;1.90;;;22.40;99.90;;;;;;4982239;28;20413;-84
2023/07/27 09:58:45;;;;;;;1.83;1.58;;;20.30;99.90;;;;;;4960911;28;20972;-84
2023/07/27 10:01:11;;;;;;;1.88;1.60;;;20.30;99.90;;;;;;4960181;28;20396;-85
2023/07/27 10:03:36;;;;;;;1.60;1.40;;;20.30;99.90;;;;;;4961901;28;20403;-83
2023/07/27 10:06:03;;;;;;;1.80;1.65;;;20.40;99.90;;;;;;4962216;28;20400;-84
2023/07/27 10:08:29;;;;;;;2.92;1.80;;;20.50;99.90;;;;;;4961217;28;20408;-85
2023/07/27 10:10:58;;;;;;;2.20;1.70;;;20.50;99.90;;;;;;4939735;29;20462;-85
2023/07/27 10:13:23;;;;;;;1.73;1.60;;;21.00;99.90;;;;;;4976775;28;20400;-85
2023/07/27 10:15:51;;;;;;;3.30;1.55;;;20.50;99.90;;;;;;4969998;28;20832;-86
2023/07/27 10:18:23;;;;;;;3.35;1.95;;;20.40;99.90;;;;;;4942731;29;20433;-85
2023/07/27 10:20:49;;;;;;;2.50;1.80;;;20.50;99.90;;;;;;4975098;28;20481;-89
2023/07/27 10:23:25;;;;;;;2.95;1.80;;;20.50;99.90;;;;;;4978418;28;20427;-85
2023/07/27 10:25:56;;;;;;;2.65;1.80;;;20.60;99.90;;;;;;4966764;28;20487;-84
2023/07/27 10:28:38;;;;;;;1.60;1.50;;;20.50;99.90;;;;;;4963764;28;20415;-84
2023/07/27 10:31:17;;;;;;;2.88;1.70;;;20.60;99.90;;;;;;4979582;28;20460;-84
2023/07/27 10:33:47;;;;;;;1.60;1.50;;;20.60;99.90;;;;;;4978775;28;20415;-86
2023/07/27 10:36:14;;;;;;;2.40;1.90;;;20.70;99.90;;;;;;4974110;28;20428;-86
2023/07/27 10:38:40;;;;;;;2.05;1.60;;;20.80;99.90;;;;;;4960142;28;20453;-86
2023/07/27 10:41:15;;;;;;;2.00;1.70;;;20.50;99.90;;;;;;4958632;28;20438;-86
2023/07/27 10:44:06;;;;;;;3.40;2.10;;;20.60;99.90;;;;;;4972685;28;20392;-86
2023/07/27 10:46:35;;;;;;;2.47;1.80;;;20.70;99.90;;;;;;4963885;28;20396;-85
2023/07/27 10:49:11;;;;;;;2.80;1.90;;;20.80;99.90;;;;;;4960363;28;20929;-85
2023/07/27 10:51:41;;;;;;;1.90;1.70;;;20.90;99.90;;;;;;4987559;28;20806;-85
2023/07/27 10:54:08;;;;;;;2.17;1.98;;;20.90;99.90;;;;;;4976853;28;20403;-86
2023/07/27 10:56:35;;;;;;;4.50;1.98;;;20.70;99.90;;;;;;4958190;28;20425;-84
2023/07/27 10:59:01;;;;;;;3.00;2.20;;;21.10;99.90;;;;;;4968442;28;20396;-85
2023/07/27 11:01:32;;;;;;;2.85;1.67;;;21.10;99.90;;;;;;4969747;28;20396;-86
2023/07/27 11:03:58;;;;;;;2.30;2.00;;;21.10;99.90;;;;;;4957232;28;20404;-86
2023/07/27 11:06:28;;;;;;;2.80;1.90;;;22.10;99.90;;;;;;4966845;28;20415;-84
2023/07/27 11:08:55;;;;;;;2.10;1.90;;;21.50;99.90;;;;;;4977683;28;20414;-85
2023/07/27 11:11:24;;;;;;;3.25;1.95;;;21.30;99.90;;;;;;4973543;28;20406;-84
2023/07/27 11:13:49;;;;;;;3.40;2.00;;;21.60;99.90;;;;;;5004526;28;20435;-86
2023/07/27 11:16:16;;;;;;;3.37;2.03;;;21.50;99.90;;;;;;4970332;28;20376;-85
2023/07/27 11:18:42;;;;;;;2.10;1.80;;;21.80;99.90;;;;;;4996573;28;20416;-87
2023/07/27 11:21:08;;;;;;;2.40;2.13;;;21.80;99.90;;;;;;4997728;28;20396;-82
2023/07/27 11:23:47;;;;;;;2.20;1.90;;;21.60;99.90;;;;;;4969221;28;20420;-85
2023/07/27 11:26:13;;;;;;;1.70;1.60;;;21.60;99.90;;;;;;4956366;28;20989;-84
2023/07/27 11:28:40;;;;;;;3.00;2.03;;;21.60;99.90;;;;;;4944308;28;20505;-86
2023/07/27 11:31:09;;;;;;;2.10;1.90;;;21.70;99.90;;;;;;4965084;29;20883;-83
2023/07/27 11:33:36;;;;;;;1.98;1.77;;;22.50;99.90;;;;;;4969264;28;20388;-84
2023/07/27 11:36:02;;;;;;;2.50;1.90;;;21.80;99.90;;;;;;4980274;28;20384;-85
2023/07/27 11:38:28;;;;;;;2.45;1.55;;;22.10;99.90;;;;;;4959528;28;20396;-84
2023/07/27 11:40:59;;;;;;;2.00;1.60;;;22.10;99.90;;;;;;4959702;28;20396;-87
2023/07/27 11:43:26;;;;;;;1.92;1.60;;;22.10;99.90;;;;;;4960759;28;20400;-86
2023/07/27 11:45:56;;;;;;;1.98;1.77;;;22.70;99.90;;;;;;4977806;28;20399;-85
2023/07/27 11:48:28;;;;;;;1.88;1.70;;;23.20;99.90;;;;;;4978565;28;20410;-85
2023/07/27 11:50:58;;;;;;;1.67;1.48;;;23.00;99.90;;;;;;4987441;28;20481;-84
2023/07/27 11:53:28;;;;;;;2.60;1.70;;;22.90;99.90;;;;;;4978942;28;20392;-84
2023/07/27 11:55:54;;;;;;;2.10;1.90;;;23.60;99.90;;;;;;4970925;28;20392;-86
2023/07/27 11:58:26;;;;;;;1.70;1.60;;;23.80;99.90;;;;;;4962361;28;20428;-85
2023/07/27 12:00:54;;;;;;;3.00;1.50;;;23.50;99.90;;;;;;4976387;28;20393;-82
2023/07/27 12:03:21;;;;;;;1.40;1.30;;;24.40;99.90;;;;;;4977152;28;20505;-86
2023/07/27 12:05:47;;;;;;;2.40;1.50;;;24.30;99.90;;;;;;4984618;28;20495;-85
2023/07/27 12:08:20;;;;;;;2.13;1.60;;;24.30;99.90;;;;;;4961939;28;20432;-87
2023/07/27 12:10:53;;;;;;;3.20;1.60;;;24.70;99.90;;;;;;4962061;28;20388;-85
2023/07/27 12:13:24;;;;;;;2.20;1.40;;;25.20;99.90;;;;;;4976491;28;20388;-86
2023/07/27 12:16:00;;;;;;;1.73;1.30;;;24.90;99.90;;;;;;4955258;28;20403;-84
2023/07/27 12:18:28;;;;;;;3.20;1.52;;;25.30;99.90;;;;;;4959078;28;20431;-85
2023/07/27 12:20:54;;;;;;;1.88;1.50;;;25.10;99.90;;;;;;4975129;28;20407;-85
2023/07/27 12:23:21;;;;;;;2.30;1.80;;;24.90;99.90;;;;;;4953304;28;20914;-85
2023/07/27 12:25:48;;;;;;;1.50;1.33;;;25.40;99.90;;;;;;4966175;28;20405;-85
2023/07/27 12:28:13;;;;;;;2.10;1.90;;;25.10;99.90;;;;;;4948577;28;20413;-85
2023/07/27 12:30:39;;;;;;;2.28;1.52;;;24.70;99.90;;;;;;4965930;28;20974;-88
2023/07/27 12:33:04;;;;;;;2.57;1.70;;;24.00;99.90;;;;;;4953707;28;20411;-85
2023/07/27 12:35:30;;;;;;;1.60;1.33;;;23.90;99.90;;;;;;4974663;28;20388;-84
2023/07/27 12:37:58;;;;;;;2.97;1.77;;;24.10;99.90;;;;;;4957891;28;20388;-85
2023/07/27 12:40:24;;;;;;;2.13;1.75;;;24.50;99.90;;;;;;4949583;28;20415;-86
2023/07/27 12:42:50;;;;;;;2.13;1.65;;;24.40;99.90;;;;;;4946325;28;20538;-85
2023/07/27 12:45:16;;;;;;;1.80;1.30;;;25.50;99.90;;;;;;4946286;28;20495;-85
2023/07/27 12:47:43;;;;;;;1.90;1.80;;;24.80;99.90;;;;;;4964437;28;20791;-85
2023/07/27 12:50:10;;;;;;;2.30;1.70;;;24.80;99.90;;;;;;4978955;28;20413;-86